Garfield County Regional Airport Rifle US
ICAO: KRIL
IATA: RIL
Category: Medium
Scheduled Services: No

Elevation: 5548 ft
TransAlt. 18000 ft.

Airport Communications:
ASOS:135.275
DENVER CNTR:134.5
CTAF/UNICOM:122.8

KRIL Zoom In..

If you have problems with the map follow the link
https://www.worldairports.se/pages/airport.php?
ICAO=KRIL

Runways:

(A) RW 08 length 7000 ft width 100 ft
---- / hdg 78

(B) RW 26 length 7000 ft width 100 ft
ILS 110.90 / hdg 258

Location; KRIL
Day. 13 / Time. 20.53 Zulu
* Altimeter: 30.04
* Temperature: 07° c. 44.6°f.
* Wind from: 000° Speed 00 kn.
Dewpoint: -04° c.
Visibility: 10 Statute Miles.
Clouds: Clear (automated report).

KRIL 132053Z AUTO 00000KT 10SM CLR 07/M04 A3004 RMK AO2 SLP170 T00671039 56024


Wind - Calm.

 
 
jpsmedia worldairports.se 2019   terms of use